createdAt,value
2023-05-14T00:01:56.133Z,135.80
2023-05-14T00:04:28.422Z,135.01
2023-05-14T00:07:01.090Z,136.43
2023-05-14T00:09:33.270Z,141.92
2023-05-14T00:12:08.466Z,137.61
2023-05-14T00:14:40.835Z,133.16
2023-05-14T00:17:13.097Z,133.06
2023-05-14T00:19:45.291Z,134.75
2023-05-14T00:22:17.829Z,135.94
2023-05-14T00:24:49.979Z,137.49
2023-05-14T00:27:24.776Z,138.06
2023-05-14T00:29:56.926Z,142.90
2023-05-14T00:32:29.448Z,139.20
2023-05-14T00:35:03.269Z,133.26
2023-05-14T00:37:36.554Z,132.62
2023-05-14T00:40:13.123Z,131.79
2023-05-14T00:42:47.978Z,129.78
2023-05-14T00:45:20.183Z,132.12
2023-05-14T00:47:52.867Z,131.66
2023-05-14T00:50:26.346Z,127.79
2023-05-14T00:52:58.758Z,127.77
2023-05-14T00:55:32.470Z,131.26
2023-05-14T00:58:11.899Z,128.39
2023-05-14T01:00:45.418Z,127.94
2023-05-14T01:03:17.761Z,125.26
2023-05-14T01:06:02.993Z,131.06
2023-05-14T01:08:48.663Z,126.35
2023-05-14T01:11:33.758Z,126.84
2023-05-14T01:14:24.339Z,124.16
2023-05-14T01:17:02.510Z,123.98
2023-05-14T01:19:43.200Z,126.84
2023-05-14T01:22:18.227Z,124.01
2023-05-14T01:24:50.489Z,125.15
2023-05-14T01:27:33.197Z,127.44
2023-05-14T01:30:18.096Z,128.64
2023-05-14T01:33:02.201Z,124.04
2023-05-14T01:35:35.605Z,125.78
2023-05-14T01:38:15.008Z,127.02
2023-05-14T01:40:50.803Z,125.54
2023-05-14T01:43:23.956Z,125.83
2023-05-14T01:45:56.378Z,127.17
2023-05-14T01:48:30.113Z,124.07
2023-05-14T01:51:02.745Z,127.24
2023-05-14T01:53:37.627Z,126.01
2023-05-14T01:56:10.367Z,123.36
2023-05-14T01:58:42.578Z,126.70
2023-05-14T02:01:14.825Z,129.99
2023-05-14T02:03:47.220Z,126.71
2023-05-14T02:06:19.460Z,125.34
2023-05-14T02:08:54.311Z,127.00
2023-05-14T02:11:26.548Z,127.99
2023-05-14T02:13:58.758Z,126.22
2023-05-14T02:16:31.085Z,127.21
2023-05-14T02:19:03.497Z,126.32
2023-05-14T02:21:35.898Z,125.47
2023-05-14T02:24:10.868Z,127.16
2023-05-14T02:26:43.131Z,121.96
2023-05-14T02:29:15.356Z,128.03
2023-05-14T02:31:47.752Z,128.59
2023-05-14T02:34:20.063Z,128.29
2023-05-14T02:36:52.288Z,127.02
2023-05-14T02:39:27.134Z,129.14
2023-05-14T02:41:59.314Z,128.51
2023-05-14T02:44:31.936Z,127.25
2023-05-14T02:47:04.232Z,125.82
2023-05-14T02:49:36.553Z,123.64
2023-05-14T02:52:09.294Z,123.21
2023-05-14T02:54:44.097Z,123.54
2023-05-14T02:57:16.485Z,123.56
2023-05-14T02:59:48.685Z,122.75
2023-05-14T03:02:21.250Z,125.48
2023-05-14T03:04:53.931Z,123.37
2023-05-14T03:07:26.207Z,122.30
2023-05-14T03:10:00.968Z,123.44
2023-05-14T03:12:33.332Z,127.21
2023-05-14T03:15:05.539Z,125.46
2023-05-14T03:17:37.769Z,125.66
2023-05-14T03:20:11.358Z,126.52
2023-05-14T03:22:43.688Z,125.41
2023-05-14T03:25:18.467Z,124.24
2023-05-14T03:27:50.741Z,123.35
2023-05-14T03:30:23.296Z,126.86
2023-05-14T03:32:55.793Z,127.22
2023-05-14T03:35:28.112Z,127.38
2023-05-14T03:38:00.444Z,123.34
2023-05-14T03:40:35.369Z,124.00
2023-05-14T03:43:07.651Z,124.61
2023-05-14T03:45:40.178Z,127.12
2023-05-14T03:48:12.519Z,121.29
2023-05-14T03:50:44.879Z,124.01
2023-05-14T03:53:17.213Z,125.89
2023-05-14T03:55:52.030Z,123.13
2023-05-14T03:58:24.203Z,127.03
2023-05-14T04:00:56.585Z,123.62
2023-05-14T04:03:28.965Z,124.36
2023-05-14T04:06:01.243Z,123.79
2023-05-14T04:08:33.433Z,125.94
2023-05-14T04:11:08.503Z,118.56
2023-05-14T04:13:40.808Z,118.25
2023-05-14T04:16:13.010Z,117.01
2023-05-14T04:18:45.387Z,119.49
2023-05-14T04:21:17.697Z,115.74
2023-05-14T04:23:50.914Z,114.14
2023-05-14T04:26:25.772Z,114.27
2023-05-14T04:28:58.453Z,109.29
2023-05-14T04:31:30.760Z,109.33
2023-05-14T04:34:02.991Z,111.20
2023-05-14T04:36:35.283Z,115.91
2023-05-14T04:39:07.949Z,113.02
2023-05-14T04:41:43.111Z,111.24
2023-05-14T04:44:17.550Z,111.49
2023-05-14T04:46:49.776Z,110.00
2023-05-14T04:49:22.001Z,103.41
2023-05-14T04:51:54.296Z,106.07
2023-05-14T04:54:26.666Z,104.97
2023-05-14T04:57:03.378Z,105.42
2023-05-14T04:59:35.660Z,104.14
2023-05-14T05:02:08.192Z,108.40
2023-05-14T05:04:40.588Z,106.92
2023-05-14T05:07:13.399Z,105.64
2023-05-14T05:09:46.607Z,103.81
2023-05-14T05:12:21.623Z,103.02
2023-05-14T05:14:53.847Z,100.38
2023-05-14T05:17:26.430Z,102.05
2023-05-14T05:19:58.678Z,101.49
2023-05-14T05:22:31.098Z,97.49
2023-05-14T05:25:05.714Z,99.17
2023-05-14T05:27:40.553Z,100.64
2023-05-14T05:30:13.879Z,102.19
2023-05-14T05:32:46.253Z,99.75
2023-05-14T05:35:18.537Z,100.28
2023-05-14T05:37:50.784Z,99.18
2023-05-14T05:40:23.149Z,96.06
2023-05-14T05:42:58.065Z,98.30
2023-05-14T05:45:30.314Z,99.14
2023-05-14T05:48:02.548Z,98.29
2023-05-14T05:50:35.011Z,98.82
2023-05-14T05:53:07.220Z,101.08
2023-05-14T05:55:39.458Z,100.34
2023-05-14T05:58:15.899Z,97.31
2023-05-14T06:00:48.106Z,97.84
2023-05-14T06:03:20.548Z,96.12
2023-05-14T06:05:52.990Z,96.76
2023-05-14T06:08:25.320Z,97.14
2023-05-14T06:10:57.583Z,93.31
2023-05-14T06:13:32.391Z,94.65
2023-05-14T06:16:04.604Z,96.62
2023-05-14T06:18:36.861Z,93.84
2023-05-14T06:21:09.251Z,95.80
2023-05-14T06:23:41.892Z,95.26
2023-05-14T06:26:14.147Z,94.07
2023-05-14T06:28:48.994Z,93.43
2023-05-14T06:31:21.687Z,92.17
2023-05-14T06:33:53.982Z,89.36
2023-05-14T06:36:26.250Z,90.81
2023-05-14T06:38:58.535Z,92.81
2023-05-14T06:41:30.710Z,86.21
2023-05-14T06:44:05.576Z,89.07
2023-05-14T06:46:37.954Z,89.35
2023-05-14T06:49:10.354Z,87.85
2023-05-14T06:51:42.749Z,87.91
2023-05-14T06:54:14.984Z,84.89
2023-05-14T06:56:47.284Z,90.11
2023-05-14T06:59:22.241Z,85.49
2023-05-14T07:01:54.597Z,86.96
2023-05-14T07:04:26.947Z,86.03
2023-05-14T07:06:59.433Z,86.68
2023-05-14T07:09:33.573Z,85.79
2023-05-14T07:12:05.770Z,84.04
2023-05-14T07:14:40.722Z,87.86
2023-05-14T07:17:13.020Z,87.46
2023-05-14T07:19:45.358Z,85.49
2023-05-14T07:22:17.584Z,84.39
2023-05-14T07:24:50.427Z,83.86
2023-05-14T07:27:22.749Z,86.09
2023-05-14T07:29:57.527Z,90.55
2023-05-14T07:32:32.990Z,86.73
2023-05-14T07:35:05.681Z,81.01
2023-05-14T07:37:38.413Z,83.95
2023-05-14T07:40:12.074Z,83.92
2023-05-14T07:42:44.251Z,86.79
2023-05-14T07:45:19.285Z,88.49
2023-05-14T07:47:52.375Z,93.91
2023-05-14T07:50:25.111Z,94.01
2023-05-14T07:52:57.423Z,94.99
2023-05-14T07:55:29.831Z,99.97
2023-05-14T07:58:02.118Z,99.44
2023-05-14T08:00:36.901Z,100.90
2023-05-14T08:03:09.241Z,103.21
2023-05-14T08:05:41.908Z,100.19
2023-05-14T08:08:14.631Z,104.59
2023-05-14T08:10:46.867Z,104.91
2023-05-14T08:13:19.204Z,105.24
2023-05-14T08:15:54.379Z,104.88
2023-05-14T08:18:26.759Z,107.89
2023-05-14T08:20:59.045Z,109.64
2023-05-14T08:23:31.812Z,107.99
2023-05-14T08:26:04.012Z,108.32
2023-05-14T08:28:36.235Z,107.19
2023-05-14T08:31:11.141Z,103.56
2023-05-14T08:33:43.353Z,103.87
2023-05-14T08:36:15.645Z,98.89
2023-05-14T08:38:48.709Z,102.49
2023-05-14T08:41:21.889Z,100.99
2023-05-14T08:44:07.312Z,102.10
2023-05-14T08:46:44.151Z,100.86
2023-05-14T08:49:28.959Z,100.81
2023-05-14T08:52:01.355Z,96.45
2023-05-14T08:54:33.956Z,99.14
2023-05-14T08:57:08.443Z,95.76
2023-05-14T08:59:41.347Z,92.91
2023-05-14T09:02:20.200Z,89.49
2023-05-14T09:04:53.531Z,93.41
2023-05-14T09:07:29.777Z,92.01
2023-05-14T09:17:20.165Z,88.23
2023-05-14T09:19:55.922Z,87.15
2023-05-14T09:22:28.965Z,88.94
2023-05-14T09:28:22.966Z,85.12
2023-05-14T09:30:56.749Z,84.76
2023-05-14T09:33:33.119Z,85.55
2023-05-14T09:36:08.158Z,86.21
2023-05-14T09:38:43.290Z,83.91
2023-05-14T09:41:16.523Z,81.99
2023-05-14T09:43:48.987Z,81.56
2023-05-14T09:46:22.001Z,81.49
2023-05-14T09:48:54.933Z,82.87
2023-05-14T09:51:29.735Z,80.56
2023-05-14T09:54:02.583Z,83.49
2023-05-14T09:56:34.803Z,85.10
2023-05-14T09:59:08.016Z,86.32
2023-05-14T10:01:46.467Z,81.53
2023-05-14T10:04:19.502Z,81.58
2023-05-14T10:06:59.382Z,81.29
2023-05-14T10:09:34.298Z,83.39
2023-05-14T10:12:06.665Z,79.50
2023-05-14T10:14:45.202Z,79.17
2023-05-14T10:17:20.814Z,79.33
2023-05-14T10:19:59.755Z,79.14
2023-05-14T10:22:37.856Z,79.49
2023-05-14T10:25:11.708Z,77.51
2023-05-14T10:27:45.255Z,77.19
2023-05-14T10:30:17.864Z,78.55
2023-05-14T10:32:53.041Z,79.45
2023-05-14T10:35:27.425Z,74.39
2023-05-14T10:38:02.922Z,73.88
2023-05-14T10:40:35.752Z,72.49
2023-05-14T10:43:11.433Z,78.92
2023-05-14T10:45:46.431Z,76.86
2023-05-14T10:48:19.835Z,78.61
2023-05-14T10:50:54.009Z,74.79
2023-05-14T10:53:37.374Z,73.23
2023-05-14T10:56:12.471Z,71.89
2023-05-14T10:58:47.342Z,70.91
2023-05-14T11:01:20.256Z,72.38
2023-05-14T11:03:57.702Z,72.15
2023-05-14T11:06:34.324Z,71.37
2023-05-14T11:09:11.799Z,69.31
2023-05-14T11:11:44.195Z,69.42
2023-05-14T11:14:17.045Z,64.42
2023-05-14T11:16:51.132Z,65.49
2023-05-14T11:19:26.285Z,61.66
2023-05-14T11:21:58.519Z,64.66
2023-05-14T11:24:33.264Z,61.71
2023-05-14T11:27:06.279Z,63.03
2023-05-14T11:29:38.878Z,64.04
2023-05-14T11:32:11.696Z,65.16
2023-05-14T11:34:44.966Z,64.39
2023-05-14T11:37:19.628Z,62.27
2023-05-14T11:39:56.737Z,63.71
2023-05-14T11:42:29.063Z,67.71
2023-05-14T11:45:01.538Z,66.73
2023-05-14T11:47:35.523Z,65.89
2023-05-14T11:50:09.388Z,62.70
2023-05-14T11:52:46.525Z,62.06
2023-05-14T11:55:22.001Z,62.86
2023-05-14T11:57:55.074Z,63.09
2023-05-14T12:00:27.336Z,63.75
2023-05-14T12:03:02.777Z,59.33
2023-05-14T12:05:35.026Z,59.84
2023-05-14T12:08:07.429Z,62.13
2023-05-14T12:10:48.829Z,61.98
2023-05-14T12:13:21.189Z,60.24
2023-05-14T12:15:59.438Z,62.51
2023-05-14T12:18:33.872Z,62.02
2023-05-14T12:21:12.205Z,60.56
2023-05-14T12:23:44.408Z,58.88
2023-05-14T12:26:19.135Z,61.86
2023-05-14T12:28:52.200Z,57.53
2023-05-14T12:31:32.667Z,61.47
2023-05-14T12:34:04.956Z,59.43
2023-05-14T12:36:37.114Z,57.88
2023-05-14T12:39:11.680Z,60.00
2023-05-14T12:41:46.843Z,59.14
2023-05-14T12:44:19.049Z,56.90
2023-05-14T12:46:51.569Z,56.63
2023-05-14T12:49:23.874Z,57.86
2023-05-14T12:52:07.729Z,57.36
2023-05-14T12:54:48.189Z,56.77
2023-05-14T12:57:23.000Z,57.02
2023-05-14T12:59:55.177Z,58.01
2023-05-14T13:02:27.543Z,58.52
2023-05-14T13:05:03.859Z,59.17
2023-05-14T13:07:37.723Z,59.66
2023-05-14T13:10:11.912Z,60.66
2023-05-14T13:12:47.916Z,60.05
2023-05-14T13:15:23.166Z,60.93
2023-05-14T13:17:55.646Z,57.36
2023-05-14T13:20:28.095Z,61.48
2023-05-14T13:23:02.253Z,61.63
2023-05-14T13:25:34.620Z,58.82
2023-05-14T13:28:09.836Z,57.04
2023-05-14T13:30:42.021Z,57.53
2023-05-14T13:33:14.404Z,57.11
2023-05-14T13:35:46.600Z,53.81
2023-05-14T13:38:18.845Z,55.17
2023-05-14T13:40:51.020Z,53.93
2023-05-14T13:43:25.794Z,52.90
2023-05-14T13:45:58.101Z,56.09
2023-05-14T13:48:31.188Z,53.29
2023-05-14T13:51:03.924Z,52.98
2023-05-14T13:53:36.162Z,53.08
2023-05-14T13:56:09.050Z,49.11
2023-05-14T13:58:44.068Z,52.01
2023-05-14T14:01:16.295Z,53.56
2023-05-14T14:03:48.706Z,50.21
2023-05-14T14:06:20.952Z,51.30
2023-05-14T14:08:53.165Z,51.46
2023-05-14T14:11:25.733Z,51.59
2023-05-14T14:14:02.411Z,50.54
2023-05-14T14:16:34.688Z,47.69
2023-05-14T14:19:07.078Z,50.54
2023-05-14T14:21:39.943Z,47.72
2023-05-14T14:24:13.283Z,46.11
2023-05-14T14:26:45.493Z,45.49
2023-05-14T14:29:21.182Z,45.65
2023-05-14T14:31:53.568Z,48.16
2023-05-14T14:34:25.811Z,45.74
2023-05-14T14:36:58.019Z,46.46
2023-05-14T14:39:30.520Z,49.29
2023-05-14T14:42:02.704Z,46.95
2023-05-14T14:44:37.494Z,49.06
2023-05-14T14:47:10.204Z,49.01
2023-05-14T14:49:42.544Z,49.83
2023-05-14T14:52:14.978Z,47.16
2023-05-14T14:54:47.153Z,45.55
2023-05-14T14:57:19.367Z,52.50
2023-05-14T14:59:54.393Z,46.76
2023-05-14T15:02:26.737Z,46.49
2023-05-14T15:04:59.021Z,48.48
2023-05-14T15:07:33.182Z,48.11
2023-05-14T15:10:08.635Z,49.91
2023-05-14T15:12:40.866Z,48.96
2023-05-14T15:15:16.254Z,46.67
2023-05-14T15:17:48.649Z,50.31
2023-05-14T15:20:21.154Z,48.41
2023-05-14T15:22:56.134Z,48.24
2023-05-14T15:25:28.863Z,50.77
2023-05-14T15:28:03.008Z,52.87
2023-05-14T15:30:38.173Z,52.84
2023-05-14T15:33:12.382Z,52.30
2023-05-14T15:35:44.601Z,52.74
2023-05-14T15:38:16.926Z,70.42
2023-05-14T15:40:50.966Z,63.95
2023-05-14T15:43:23.318Z,53.57
2023-05-14T15:45:58.144Z,52.65
2023-05-14T15:48:30.536Z,53.25
2023-05-14T15:51:03.098Z,51.74
2023-05-14T15:53:35.279Z,54.14
2023-05-14T15:56:07.905Z,55.00
2023-05-14T15:58:40.192Z,56.95
2023-05-14T16:01:15.112Z,56.96
2023-05-14T16:03:47.379Z,61.20
2023-05-14T16:06:19.911Z,61.38
2023-05-14T16:08:52.358Z,62.43
2023-05-14T16:11:27.304Z,56.31
2023-05-14T16:13:59.496Z,53.15
2023-05-14T16:16:39.555Z,55.06
2023-05-14T16:19:11.951Z,57.11
2023-05-14T16:21:44.486Z,59.61
2023-05-14T16:24:16.711Z,61.86
2023-05-14T16:26:49.113Z,58.17
2023-05-14T16:29:21.360Z,56.95
2023-05-14T16:31:56.292Z,60.33
2023-05-14T16:34:28.504Z,58.39
2023-05-14T16:37:00.820Z,56.66
2023-05-14T16:39:33.126Z,59.33
2023-05-14T16:42:05.407Z,62.88
2023-05-14T16:44:37.692Z,56.95
2023-05-14T16:47:13.274Z,57.19
2023-05-14T16:49:45.786Z,57.16
2023-05-14T16:52:18.028Z,54.24
2023-05-14T16:54:50.256Z,51.21
2023-05-14T16:57:22.461Z,53.16
2023-05-14T16:59:54.879Z,56.56
2023-05-14T17:02:29.696Z,58.13
2023-05-14T17:05:01.949Z,57.48
2023-05-14T17:07:34.268Z,57.93
2023-05-14T17:10:06.483Z,58.43
2023-05-14T17:12:38.724Z,61.74
2023-05-14T17:15:15.046Z,64.27
2023-05-14T17:17:50.051Z,66.07
2023-05-14T17:20:22.342Z,67.87
2023-05-14T17:22:56.752Z,70.79
2023-05-14T17:25:29.136Z,76.94
2023-05-14T17:28:01.532Z,77.49
2023-05-14T17:30:34.148Z,72.67
2023-05-14T17:33:09.021Z,78.61
2023-05-14T17:35:43.951Z,80.16
2023-05-14T17:38:17.267Z,84.77
2023-05-14T17:40:49.489Z,80.59
2023-05-14T17:43:21.744Z,81.86
2023-05-14T17:45:54.897Z,83.66
2023-05-14T17:48:30.103Z,80.44
2023-05-14T17:51:02.390Z,78.81
2023-05-14T17:53:34.753Z,79.22
2023-05-14T17:56:07.331Z,74.99
2023-05-14T17:58:39.881Z,76.59
2023-05-14T18:01:12.135Z,78.86
2023-05-14T18:03:47.197Z,78.24
2023-05-14T18:06:22.487Z,76.42
2023-05-14T18:08:54.841Z,79.60
2023-05-14T18:11:32.819Z,77.75
2023-05-14T18:14:05.199Z,76.64
2023-05-14T18:16:37.527Z,75.59
2023-05-14T18:19:12.567Z,79.31
2023-05-14T18:21:46.760Z,76.16
2023-05-14T18:24:18.933Z,74.25
2023-05-14T18:26:51.417Z,73.92
2023-05-14T18:29:23.913Z,76.73
2023-05-14T18:31:56.111Z,74.99
2023-05-14T18:34:30.931Z,76.86
2023-05-14T18:37:03.353Z,76.08
2023-05-14T18:39:35.786Z,71.46
2023-05-14T18:42:08.229Z,70.41
2023-05-14T18:44:44.352Z,69.29
2023-05-14T18:47:16.702Z,70.20
2023-05-14T18:49:55.027Z,70.92
2023-05-14T18:52:27.343Z,69.88
2023-05-14T18:54:59.715Z,69.78
2023-05-14T18:57:33.090Z,69.68
2023-05-14T19:00:05.491Z,69.57
2023-05-14T19:02:37.861Z,67.08
2023-05-14T19:05:13.376Z,70.61
2023-05-14T19:07:48.207Z,69.51
2023-05-14T19:10:20.501Z,72.28
2023-05-14T19:12:52.690Z,72.51
2023-05-14T19:15:25.042Z,71.42
2023-05-14T19:17:57.633Z,74.41
2023-05-14T19:20:32.542Z,77.21
2023-05-14T19:23:04.741Z,79.21
2023-05-14T19:25:37.218Z,79.26
2023-05-14T19:28:09.953Z,81.55
2023-05-14T19:30:42.225Z,76.20
2023-05-14T19:33:14.501Z,79.66
2023-05-14T19:35:49.559Z,76.08
2023-05-14T19:38:22.174Z,82.71
2023-05-14T19:40:56.986Z,76.09
2023-05-14T19:43:29.618Z,74.03
2023-05-14T19:46:01.908Z,76.64
2023-05-14T19:48:34.499Z,74.57
2023-05-14T19:51:09.318Z,73.91
2023-05-14T19:53:41.563Z,74.32
2023-05-14T19:56:13.905Z,70.91
2023-05-14T19:58:46.371Z,68.81
2023-05-14T20:01:19.418Z,69.18
2023-05-14T20:03:51.728Z,71.60
2023-05-14T20:06:27.152Z,69.37
2023-05-14T20:09:01.539Z,73.23
2023-05-14T20:11:33.788Z,71.69
2023-05-14T20:14:05.987Z,71.09
2023-05-14T20:16:38.358Z,75.30
2023-05-14T20:19:14.380Z,76.81
2023-05-14T20:21:49.185Z,75.53
2023-05-14T20:24:21.473Z,76.04
2023-05-14T20:26:54.103Z,73.66
2023-05-14T20:29:29.051Z,76.87
2023-05-14T20:32:01.252Z,76.95
2023-05-14T20:34:33.467Z,77.59
2023-05-14T20:37:08.934Z,74.63
2023-05-14T20:39:41.243Z,72.26
2023-05-14T20:42:13.537Z,75.78
2023-05-14T20:44:45.769Z,72.91
2023-05-14T20:47:21.415Z,74.85
2023-05-14T20:49:54.329Z,74.37
2023-05-14T20:52:29.479Z,73.84
2023-05-14T20:55:02.440Z,74.81
2023-05-14T20:57:34.734Z,77.10
2023-05-14T21:00:10.140Z,77.82
2023-05-14T21:02:42.642Z,79.81
2023-05-14T21:05:15.733Z,76.93
2023-05-14T21:07:52.009Z,76.38
2023-05-14T21:10:24.390Z,78.47
2023-05-14T21:12:56.823Z,76.74
2023-05-14T21:15:30.761Z,73.07
2023-05-14T21:18:03.283Z,74.10
2023-05-14T21:20:35.497Z,75.19
2023-05-14T21:23:10.312Z,74.41
2023-05-14T21:25:42.579Z,77.04
2023-05-14T21:28:15.964Z,71.55
2023-05-14T21:30:48.175Z,72.51
2023-05-14T21:33:20.463Z,72.39
2023-05-14T21:35:52.715Z,68.99
2023-05-14T21:38:27.793Z,71.30
2023-05-14T21:41:00.084Z,69.56
2023-05-14T21:43:32.512Z,70.44
2023-05-14T21:46:04.827Z,69.45
2023-05-14T21:48:37.295Z,69.59
2023-05-14T21:51:10.253Z,70.51
2023-05-14T21:53:45.082Z,69.81
2023-05-14T21:56:17.328Z,73.04
2023-05-14T21:58:51.683Z,73.02
2023-05-14T22:01:23.944Z,75.06
2023-05-14T22:03:57.685Z,78.75
2023-05-14T22:06:30.323Z,79.06
2023-05-14T22:09:08.267Z,78.11
2023-05-14T22:11:40.514Z,79.34
2023-05-14T22:14:12.727Z,78.65
2023-05-14T22:16:44.985Z,81.59
2023-05-14T22:19:19.665Z,78.38
2023-05-14T22:21:51.909Z,79.47
2023-05-14T22:24:26.726Z,79.80
2023-05-14T22:26:59.043Z,80.24
2023-05-14T22:29:31.297Z,80.79
2023-05-14T22:32:03.696Z,80.18
2023-05-14T22:34:35.888Z,84.28
2023-05-14T22:37:08.875Z,84.60
2023-05-14T22:39:43.850Z,82.01
2023-05-14T22:42:16.032Z,81.57
2023-05-14T22:44:48.211Z,84.67
2023-05-14T22:47:20.626Z,89.41
2023-05-14T22:49:52.954Z,89.91
2023-05-14T22:52:25.170Z,91.51
2023-05-14T22:54:59.984Z,89.50
2023-05-14T22:57:32.260Z,89.00
2023-05-14T23:00:04.703Z,89.99
2023-05-14T23:02:36.981Z,89.46
2023-05-14T23:05:10.268Z,90.29
2023-05-14T23:07:42.664Z,87.01
2023-05-14T23:10:17.803Z,90.24
2023-05-14T23:12:50.404Z,87.51
2023-05-14T23:15:22.709Z,88.86
2023-05-14T23:17:55.119Z,87.66
2023-05-14T23:20:27.391Z,89.38
2023-05-14T23:22:59.578Z,90.76
2023-05-14T23:25:35.673Z,92.24
2023-05-14T23:28:08.027Z,86.26
2023-05-14T23:30:40.393Z,92.56
2023-05-14T23:33:12.790Z,95.29
2023-05-14T23:35:45.312Z,98.94
2023-05-14T23:38:18.050Z,94.31
2023-05-14T23:40:52.957Z,95.74
2023-05-14T23:43:25.224Z,94.67
2023-05-14T23:45:57.661Z,92.56
2023-05-14T23:48:30.324Z,92.92
2023-05-14T23:51:02.525Z,93.32
2023-05-14T23:53:34.763Z,90.94
2023-05-14T23:56:10.142Z,90.51
2023-05-14T23:58:42.524Z,87.80
